TAF KMKC
KMKC 072320Z 0800/0824 19004KT P6SM SCT120 BKN200=
METAR KMKC
WC KMKC
WS KMKC
WV KMKC